Time;durP1;ratioP1;P1;durP2;ratioP2;P2;SDS_P1;SDS_P2;PMS_P1;PMS_P2;Temp;Humidity;BMP_temperature;BMP_pressure;BME280_temperature;BME280_humidity;BME280_pressure;Samples;Min_cycle;Max_cycle;Signal;HPM_P1;HPM_P2
2023/04/26 05:43:10;;;;;;;1999.90;999.90;;;16.00;99.90;;;;;;5105753;27;20404;-55
2023/04/26 05:45:36;;;;;;;1999.90;999.90;;;16.60;99.90;;;;;;5085020;28;21008;-56
2023/04/26 05:48:02;;;;;;;1999.90;999.90;;;16.50;99.90;;;;;;5104422;28;20028;-55
2023/04/26 05:50:27;;;;;;;1999.90;999.90;;;16.40;99.90;;;;;;5102049;27;20050;-55
2023/04/26 05:52:53;;;;;;;1999.90;999.90;;;16.40;99.90;;;;;;5100697;28;20039;-55
2023/04/26 05:55:20;;;;;;;1999.90;999.90;;;16.30;99.90;;;;;;5102081;28;20040;-56
2023/04/26 05:57:45;;;;;;;1999.90;999.90;;;16.30;99.90;;;;;;5102510;28;20087;-54
2023/04/26 06:00:12;;;;;;;1999.90;999.90;;;16.30;99.90;;;;;;5103384;28;20097;-55
2023/04/26 06:02:37;;;;;;;1999.90;999.90;;;16.30;99.90;;;;;;5101134;28;20044;-55
2023/04/26 06:05:07;;;;;;;1999.90;999.90;;;16.30;99.90;;;;;;5101817;28;20495;-56
2023/04/26 06:07:33;;;;;;;1999.90;999.90;;;16.30;99.90;;;;;;5085021;28;20047;-55
2023/04/26 06:10:01;;;;;;;1999.90;999.90;;;16.30;99.90;;;;;;5085597;28;20044;-55
2023/04/26 06:12:27;;;;;;;1999.90;999.90;;;16.30;99.90;;;;;;5099784;28;20151;-56
2023/04/26 06:14:52;;;;;;;1999.90;999.90;;;16.30;99.90;;;;;;5098901;28;20032;-56
2023/04/26 06:17:18;;;;;;;1999.90;999.90;;;16.30;99.90;;;;;;5098670;28;20988;-53
2023/04/26 06:19:43;;;;;;;1999.90;999.90;;;16.20;99.90;;;;;;5079118;28;20143;-55
2023/04/26 06:22:09;;;;;;;1999.90;999.90;;;16.20;99.90;;;;;;5083826;28;20450;-56
2023/04/26 06:24:34;;;;;;;1999.90;999.90;;;16.20;99.90;;;;;;5103497;28;20522;-55
2023/04/26 06:27:00;;;;;;;1999.90;999.90;;;16.20;99.90;;;;;;5100145;28;20024;-55
2023/04/26 06:29:25;;;;;;;1999.90;999.90;;;16.20;99.90;;;;;;5100651;28;20109;-55
2023/04/26 06:31:51;;;;;;;1999.90;999.90;;;16.10;99.90;;;;;;5098198;28;20034;-55
2023/04/26 06:34:17;;;;;;;1999.90;999.90;;;16.10;99.90;;;;;;5101046;28;20039;-55
2023/04/26 06:36:42;;;;;;;1999.90;999.90;;;16.10;99.90;;;;;;5077208;28;20469;-52
2023/04/26 06:39:08;;;;;;;1999.90;999.90;;;16.10;99.90;;;;;;5101835;28;20035;-59
2023/04/26 06:41:33;;;;;;;1999.90;999.90;;;16.10;99.90;;;;;;5097502;28;20060;-59
2023/04/26 06:43:59;;;;;;;1999.90;999.90;;;16.20;99.90;;;;;;5087146;28;20047;-57
2023/04/26 06:46:25;;;;;;;1999.90;999.90;;;16.20;99.90;;;;;;5084000;28;20117;-57
2023/04/26 06:48:54;;;;;;;1999.90;999.90;;;16.10;99.90;;;;;;5086001;28;20032;-57
2023/04/26 06:51:20;;;;;;;1999.90;999.90;;;16.10;99.90;;;;;;5088966;28;20052;-57
2023/04/26 06:53:47;;;;;;;1999.90;999.90;;;16.10;99.90;;;;;;5070642;28;20032;-57
2023/04/26 06:56:12;;;;;;;1999.90;999.90;;;16.10;99.90;;;;;;5090866;28;20444;-57
2023/04/26 06:58:38;;;;;;;1999.90;999.90;;;16.10;99.90;;;;;;5086318;28;20036;-57
2023/04/26 07:01:05;;;;;;;1999.90;999.90;;;16.10;99.90;;;;;;5088785;28;20047;-57
2023/04/26 07:03:31;;;;;;;1999.90;999.90;;;16.10;99.90;;;;;;5088803;28;20039;-57
2023/04/26 07:05:56;;;;;;;1999.90;999.90;;;16.10;99.90;;;;;;5073356;28;20373;-57
2023/04/26 07:08:22;;;;;;;1999.90;999.90;;;16.10;99.90;;;;;;5087818;28;20043;-58
2023/04/26 07:10:48;;;;;;;1999.90;999.90;;;16.00;99.90;;;;;;5089620;28;20048;-57
2023/04/26 07:13:13;;;;;;;1999.90;999.90;;;16.10;99.90;;;;;;5087392;28;20044;-57
2023/04/26 07:15:39;;;;;;;1999.90;999.90;;;16.10;99.90;;;;;;5087729;28;20032;-57
2023/04/26 07:18:04;;;;;;;1999.90;999.90;;;16.00;99.90;;;;;;5091588;28;20085;-57
2023/04/26 07:20:30;;;;;;;1999.90;999.90;;;16.00;99.90;;;;;;5069087;28;20135;-57
2023/04/26 07:22:56;;;;;;;1999.90;999.90;;;16.00;99.90;;;;;;5087291;28;20040;-57
2023/04/26 07:25:21;;;;;;;1999.90;999.90;;;16.00;99.90;;;;;;5088370;28;20047;-57
2023/04/26 07:27:47;;;;;;;1999.90;999.90;;;16.10;99.90;;;;;;5085245;28;20040;-57
2023/04/26 07:30:12;;;;;;;1999.90;999.90;;;16.00;99.90;;;;;;5087902;28;20036;-57
2023/04/26 07:32:38;;;;;;;1999.90;999.90;;;16.00;99.90;;;;;;5071913;28;20391;-57
2023/04/26 07:35:13;;;;;;;1999.90;999.90;;;16.00;99.90;;;;;;5091798;28;20640;-57
2023/04/26 07:37:39;;;;;;;1999.90;999.90;;;16.00;99.90;;;;;;5088792;28;20392;-57
2023/04/26 07:40:07;;;;;;;1999.90;999.90;;;16.00;99.90;;;;;;5069246;28;20062;-57
2023/04/26 07:42:32;;;;;;;1999.90;999.90;;;16.00;99.90;;;;;;5089412;28;20056;-57
2023/04/26 07:44:58;;;;;;;1999.90;999.90;;;16.00;99.90;;;;;;5090172;28;20318;-57
2023/04/26 07:47:24;;;;;;;1999.90;999.90;;;16.00;99.90;;;;;;5090839;28;20058;-57
2023/04/26 07:49:53;;;;;;;1999.90;999.90;;;16.00;99.90;;;;;;5090582;28;20031;-57
2023/04/26 07:52:19;;;;;;;1999.90;999.90;;;16.00;99.90;;;;;;5083869;28;20040;-57
2023/04/26 07:54:45;;;;;;;1999.90;999.90;;;16.00;99.90;;;;;;5086909;28;20690;-57
2023/04/26 07:57:11;;;;;;;1999.90;999.90;;;16.00;99.90;;;;;;5087294;28;20032;-57
2023/04/26 07:59:37;;;;;;;1999.90;999.90;;;16.00;99.90;;;;;;5091241;28;20040;-57
2023/04/26 08:02:02;;;;;;;1999.90;999.90;;;15.90;99.90;;;;;;5087116;28;20115;-57
2023/04/26 08:04:32;;;;;;;1999.90;999.90;;;16.00;99.90;;;;;;5068207;28;20035;-57
2023/04/26 08:07:00;;;;;;;1999.90;999.90;;;16.00;99.90;;;;;;5090607;28;20526;-57
2023/04/26 08:09:27;;;;;;;1999.90;999.90;;;16.00;99.90;;;;;;5086607;28;20420;-57
2023/04/26 08:11:52;;;;;;;1999.90;999.90;;;16.00;99.90;;;;;;5063908;28;20127;-58
2023/04/26 08:14:18;;;;;;;1999.90;999.90;;;16.00;99.90;;;;;;5087053;28;20162;-58
2023/04/26 08:16:43;;;;;;;1999.90;999.90;;;15.90;99.90;;;;;;5087669;28;20035;-57
2023/04/26 08:19:09;;;;;;;1999.90;999.90;;;16.00;99.90;;;;;;5086940;28;20120;-57
2023/04/26 08:21:35;;;;;;;1999.90;999.90;;;15.90;99.90;;;;;;5086093;28;20044;-57
2023/04/26 08:24:00;;;;;;;1999.90;999.90;;;16.00;99.90;;;;;;5086526;28;20400;-57
2023/04/26 08:26:26;;;;;;;1999.90;999.90;;;15.90;99.90;;;;;;5086908;28;20044;-58
2023/04/26 08:28:51;;;;;;;1999.90;999.90;;;15.90;99.90;;;;;;5087519;28;20036;-57
2023/04/26 08:31:17;;;;;;;1999.90;999.90;;;15.90;99.90;;;;;;5071052;28;20492;-57
2023/04/26 08:33:42;;;;;;;1999.90;999.90;;;15.90;99.90;;;;;;5053721;28;20047;-57
2023/04/26 08:36:08;;;;;;;1999.90;999.90;;;15.90;99.90;;;;;;5086579;28;20074;-57
2023/04/26 08:38:34;;;;;;;1999.90;999.90;;;15.90;99.90;;;;;;5086827;28;20442;-57
2023/04/26 08:41:01;;;;;;;1999.90;999.90;;;15.90;99.90;;;;;;5087385;28;20051;-57
2023/04/26 08:43:28;;;;;;;1999.90;999.90;;;15.90;99.90;;;;;;5101666;28;20135;-57
2023/04/26 08:45:54;;;;;;;1999.90;999.90;;;15.90;99.90;;;;;;5082010;28;20078;-57
2023/04/26 08:48:20;;;;;;;1999.90;999.90;;;15.90;99.90;;;;;;5051381;28;20044;-57
2023/04/26 08:50:47;;;;;;;1999.90;999.90;;;15.90;99.90;;;;;;5084918;28;20475;-58
2023/04/26 08:53:15;;;;;;;1999.90;999.90;;;15.90;99.90;;;;;;5086087;28;20051;-57
2023/04/26 08:55:41;;;;;;;1999.90;999.90;;;15.90;99.90;;;;;;5088361;28;20039;-57
2023/04/26 08:58:07;;;;;;;1999.90;999.90;;;15.90;99.90;;;;;;5067887;28;20450;-57
2023/04/26 09:00:34;;;;;;;1999.90;999.90;;;15.90;99.90;;;;;;5086751;28;20248;-57
2023/04/26 09:03:00;;;;;;;1999.90;999.90;;;15.90;99.90;;;;;;5071312;28;20483;-57
2023/04/26 09:05:26;;;;;;;1999.90;999.90;;;15.90;99.90;;;;;;5085379;28;20040;-57
2023/04/26 09:07:56;;;;;;;1999.90;999.90;;;15.90;99.90;;;;;;5086037;28;20440;-57
2023/04/26 09:10:22;;;;;;;1999.90;999.90;;;15.80;99.90;;;;;;5067958;28;20035;-58
2023/04/26 09:12:52;;;;;;;1999.90;999.90;;;15.80;99.90;;;;;;5086161;28;20438;-58
2023/04/26 09:15:19;;;;;;;1999.90;999.90;;;15.80;99.90;;;;;;5084283;28;20047;-57
2023/04/26 09:17:44;;;;;;;1999.90;999.90;;;15.80;99.90;;;;;;5086674;28;20223;-57
2023/04/26 09:20:19;;;;;;;1999.90;999.90;;;15.80;99.90;;;;;;5086102;28;20130;-57
2023/04/26 09:22:45;;;;;;;1999.90;999.90;;;15.80;99.90;;;;;;5084837;28;20123;-57
2023/04/26 09:25:12;;;;;;;1999.90;999.90;;;15.80;99.90;;;;;;5085571;28;20039;-58
2023/04/26 09:27:42;;;;;;;1999.90;999.90;;;15.80;99.90;;;;;;5087059;28;20454;-58
2023/04/26 09:30:10;;;;;;;1999.90;999.90;;;15.80;99.90;;;;;;5085229;28;20044;-57
2023/04/26 09:32:57;;;;;;;1999.90;999.90;;;15.80;99.90;;;;;;5085576;28;20043;-58
2023/04/26 09:35:32;;;;;;;1999.90;999.90;;;15.80;99.90;;;;;;5088017;28;20430;-57
2023/04/26 09:38:12;;;;;;;1999.90;999.90;;;15.80;99.90;;;;;;5067569;28;20379;-58
2023/04/26 09:40:40;;;;;;;1999.90;999.90;;;15.80;99.90;;;;;;5082052;28;20088;-57
2023/04/26 09:43:16;;;;;;;1999.90;999.90;;;15.80;99.90;;;;;;5085941;28;20052;-57
2023/04/26 09:45:49;;;;;;;1999.90;999.90;;;15.80;99.90;;;;;;5086460;28;20040;-57
2023/04/26 09:48:15;;;;;;;1999.90;999.90;;;15.80;99.90;;;;;;5082412;28;20067;-57
2023/04/26 09:50:42;;;;;;;1999.90;999.90;;;15.80;99.90;;;;;;5085075;28;20638;-58
2023/04/26 09:53:08;;;;;;;1999.90;999.90;;;15.80;99.90;;;;;;5067097;28;20118;-57
2023/04/26 09:55:33;;;;;;;1999.90;999.90;;;15.80;99.90;;;;;;5086770;28;20050;-57
2023/04/26 09:58:06;;;;;;;1999.90;999.90;;;15.90;99.90;;;;;;5067417;28;20047;-57
2023/04/26 10:00:32;;;;;;;1999.90;999.90;;;15.90;99.90;;;;;;5084987;28;20046;-57
2023/04/26 10:02:58;;;;;;;1999.90;999.90;;;15.90;99.90;;;;;;5087813;28;20109;-57
2023/04/26 10:05:25;;;;;;;1999.90;999.90;;;15.90;99.90;;;;;;5085294;28;20024;-57
2023/04/26 10:07:50;;;;;;;1999.90;999.90;;;15.90;99.90;;;;;;5084535;28;20055;-57
2023/04/26 10:10:17;;;;;;;1999.90;999.90;;;15.90;99.90;;;;;;5087446;28;20040;-57
2023/04/26 10:12:43;;;;;;;1999.90;999.90;;;15.90;99.90;;;;;;5084737;28;20047;-57
2023/04/26 10:15:10;;;;;;;1999.90;999.90;;;15.90;99.90;;;;;;5084259;28;20040;-57
2023/04/26 10:17:37;;;;;;;1999.90;999.90;;;15.90;99.90;;;;;;5087548;28;20042;-57
2023/04/26 10:20:05;;;;;;;1999.90;999.90;;;15.90;99.90;;;;;;5091644;28;20543;-57
2023/04/26 10:22:43;;;;;;;1999.90;999.90;;;15.90;99.90;;;;;;5088785;28;20052;-57
2023/04/26 10:25:09;;;;;;;1999.90;999.90;;;15.90;99.90;;;;;;5089262;28;20032;-57
2023/04/26 10:27:46;;;;;;;1999.90;999.90;;;15.90;99.90;;;;;;5091987;28;20042;-57
2023/04/26 10:30:15;;;;;;;1999.90;999.90;;;15.90;99.90;;;;;;5070338;28;20047;-58
2023/04/26 10:32:56;;;;;;;1999.90;999.90;;;15.90;99.90;;;;;;5090315;28;20908;-57
2023/04/26 10:35:26;;;;;;;1999.90;999.90;;;15.90;99.90;;;;;;5094606;28;20075;-57
2023/04/26 10:38:00;;;;;;;1999.90;999.90;;;15.90;99.90;;;;;;5087647;28;20112;-57
2023/04/26 10:40:37;;;;;;;1999.90;999.90;;;15.90;99.90;;;;;;5053879;28;20072;-57
2023/04/26 10:43:14;;;;;;;1999.90;999.90;;;15.90;99.90;;;;;;5085440;28;20141;-57
2023/04/26 10:45:41;;;;;;;1999.90;999.90;;;15.90;99.90;;;;;;5090119;28;20428;-57
2023/04/26 10:48:17;;;;;;;1999.90;999.90;;;15.80;99.90;;;;;;5088711;28;20391;-57
2023/04/26 10:51:01;;;;;;;1999.90;999.90;;;15.90;99.90;;;;;;5092098;28;20036;-58
2023/04/26 10:53:29;;;;;;;1999.90;999.90;;;15.90;99.90;;;;;;5091681;28;20044;-57
2023/04/26 10:55:55;;;;;;;1999.90;999.90;;;15.80;99.90;;;;;;5090984;28;20043;-57
2023/04/26 10:58:34;;;;;;;1999.90;999.90;;;15.80;99.90;;;;;;5070155;28;20388;-57
2023/04/26 11:01:07;;;;;;;1999.90;999.90;;;15.80;99.90;;;;;;5088845;28;20043;-57
2023/04/26 11:03:33;;;;;;;1999.90;999.90;;;15.80;99.90;;;;;;5088166;28;20036;-57
2023/04/26 11:05:59;;;;;;;1999.90;999.90;;;15.80;99.90;;;;;;5083309;28;20216;-58
2023/04/26 11:08:30;;;;;;;1999.90;999.90;;;15.80;99.90;;;;;;5090497;28;20364;-57
2023/04/26 11:11:02;;;;;;;1999.90;999.90;;;15.80;99.90;;;;;;5073089;28;20040;-57
2023/04/26 11:13:39;;;;;;;1999.90;999.90;;;15.80;99.90;;;;;;5088715;28;20074;-57
2023/04/26 11:16:08;;;;;;;1999.90;999.90;;;15.80;99.90;;;;;;5089406;28;20404;-57
2023/04/26 11:18:35;;;;;;;1999.90;999.90;;;15.80;99.90;;;;;;5086943;28;20115;-57
2023/04/26 11:21:01;;;;;;;1999.90;999.90;;;15.80;99.90;;;;;;5088239;28;20052;-57
2023/04/26 11:23:29;;;;;;;1999.90;999.90;;;15.80;99.90;;;;;;5090620;28;20048;-57
2023/04/26 11:26:05;;;;;;;1999.90;999.90;;;15.90;99.90;;;;;;5087155;28;20861;-58
2023/04/26 11:28:32;;;;;;;1999.90;999.90;;;15.90;99.90;;;;;;5088877;28;20475;-57
2023/04/26 11:30:57;;;;;;;1999.90;999.90;;;15.80;99.90;;;;;;5091329;28;20040;-57
2023/04/26 11:33:24;;;;;;;1999.90;999.90;;;15.80;99.90;;;;;;5092696;28;20043;-57
2023/04/26 11:35:51;;;;;;;1999.90;999.90;;;15.90;99.90;;;;;;5086718;28;20047;-57
2023/04/26 11:38:17;;;;;;;1999.90;999.90;;;15.90;99.90;;;;;;5088134;28;20392;-58
2023/04/26 11:40:43;;;;;;;1999.90;999.90;;;15.90;99.90;;;;;;5085343;28;20036;-56
2023/04/26 11:43:10;;;;;;;1999.90;999.90;;;15.90;99.90;;;;;;5088270;28;20056;-57
2023/04/26 11:45:37;;;;;;;1999.90;999.90;;;15.90;99.90;;;;;;5087131;28;20076;-57
2023/04/26 11:48:09;;;;;;;1999.90;999.90;;;16.00;99.90;;;;;;5083425;28;20392;-57
2023/04/26 11:50:37;;;;;;;1999.90;999.90;;;16.00;99.90;;;;;;5087209;28;20040;-57
2023/04/26 11:53:05;;;;;;;1999.90;999.90;;;16.00;99.90;;;;;;5089141;28;20044;-57
2023/04/26 11:55:33;;;;;;;1999.90;999.90;;;16.00;99.90;;;;;;5086271;28;20132;-57
2023/04/26 11:58:10;;;;;;;1999.90;999.90;;;16.00;99.90;;;;;;5068322;28;20847;-57
2023/04/26 12:00:36;;;;;;;1999.90;999.90;;;16.00;99.90;;;;;;5089286;28;20395;-57
2023/04/26 12:03:09;;;;;;;1999.90;999.90;;;16.00;99.90;;;;;;5066549;28;20047;-57
2023/04/26 12:05:35;;;;;;;1999.90;999.90;;;16.00;99.90;;;;;;5070248;28;20052;-57
2023/04/26 12:08:01;;;;;;;1999.90;999.90;;;16.00;99.90;;;;;;5086619;28;20039;-57
2023/04/26 12:10:33;;;;;;;1999.90;999.90;;;16.10;99.90;;;;;;5086992;28;20040;-57
2023/04/26 12:12:59;;;;;;;1999.90;999.90;;;16.10;99.90;;;;;;5092638;28;20130;-57
2023/04/26 12:15:32;;;;;;;1999.90;999.90;;;16.10;99.90;;;;;;5089452;28;20472;-57
2023/04/26 12:18:09;;;;;;;1999.90;999.90;;;16.10;99.90;;;;;;5083949;28;20491;-57
2023/04/26 12:20:39;;;;;;;1999.90;999.90;;;16.10;99.90;;;;;;5068265;28;20112;-58
2023/04/26 12:23:06;;;;;;;1999.90;999.90;;;16.10;99.90;;;;;;5068047;28;20047;-57
2023/04/26 12:25:34;;;;;;;1999.90;999.90;;;16.10;99.90;;;;;;5087221;28;20044;-57
2023/04/26 12:28:02;;;;;;;1999.90;999.90;;;16.10;99.90;;;;;;5088295;28;20052;-57
2023/04/26 12:30:28;;;;;;;1999.90;999.90;;;16.00;99.90;;;;;;5087893;28;20044;-58
2023/04/26 12:32:54;;;;;;;1999.90;999.90;;;16.10;99.90;;;;;;5084563;28;20039;-58
2023/04/26 12:35:22;;;;;;;1999.90;999.90;;;16.10;99.90;;;;;;5085843;28;20043;-57
2023/04/26 12:37:48;;;;;;;1999.90;999.90;;;16.10;99.90;;;;;;5085954;28;20043;-57
2023/04/26 12:40:15;;;;;;;1999.90;999.90;;;16.10;99.90;;;;;;5092499;28;20028;-57
2023/04/26 12:42:40;;;;;;;1999.90;999.90;;;16.00;99.90;;;;;;5085382;28;20432;-57
2023/04/26 12:45:07;;;;;;;1999.90;999.90;;;16.00;99.90;;;;;;5082197;28;20039;-57
2023/04/26 12:47:33;;;;;;;1999.90;999.90;;;16.00;99.90;;;;;;5085094;28;20114;-57
2023/04/26 12:49:59;;;;;;;1999.90;999.90;;;16.00;99.90;;;;;;5087035;28;20032;-58
2023/04/26 12:52:26;;;;;;;1999.90;999.90;;;16.00;99.90;;;;;;5090729;28;20458;-57
2023/04/26 12:54:52;;;;;;;1999.90;999.90;;;16.00;99.90;;;;;;5085521;28;20070;-57
2023/04/26 12:57:19;;;;;;;1999.90;999.90;;;16.00;99.90;;;;;;5068718;28;20464;-57
2023/04/26 12:59:45;;;;;;;1999.90;999.90;;;16.00;99.90;;;;;;5088845;28;20048;-57
2023/04/26 13:02:11;;;;;;;1999.90;999.90;;;16.00;99.90;;;;;;5072387;28;20036;-57
2023/04/26 13:04:37;;;;;;;1999.90;999.90;;;16.00;99.90;;;;;;5087563;28;20047;-57
2023/04/26 13:07:03;;;;;;;1999.90;999.90;;;16.00;99.90;;;;;;5085958;28;20036;-58
2023/04/26 13:09:28;;;;;;;1999.90;999.90;;;16.00;99.90;;;;;;5068480;28;20088;-57
2023/04/26 13:11:54;;;;;;;1999.90;999.90;;;16.00;99.90;;;;;;5085395;28;20055;-57
2023/04/26 13:14:22;;;;;;;1999.90;999.90;;;16.00;99.90;;;;;;5085013;28;20123;-57
2023/04/26 13:16:48;;;;;;;1999.90;999.90;;;16.00;99.90;;;;;;5085023;28;20032;-57
2023/04/26 13:19:13;;;;;;;1999.90;999.90;;;16.00;99.90;;;;;;5088611;28;20043;-57
2023/04/26 13:21:40;;;;;;;1999.90;999.90;;;16.00;99.90;;;;;;5088484;28;20051;-58
2023/04/26 13:24:06;;;;;;;1999.90;999.90;;;16.00;99.90;;;;;;5086249;28;20488;-58
2023/04/26 13:26:32;;;;;;;1999.90;999.90;;;16.00;99.90;;;;;;5088795;28;20040;-57
2023/04/26 13:28:58;;;;;;;1999.90;999.90;;;16.00;99.90;;;;;;5087678;28;20451;-57
2023/04/26 13:31:24;;;;;;;1999.90;999.90;;;16.00;99.90;;;;;;5086019;28;20389;-57
2023/04/26 13:33:50;;;;;;;1999.90;999.90;;;16.00;99.90;;;;;;5088208;28;20722;-58
2023/04/26 13:36:16;;;;;;;1999.90;999.90;;;16.00;99.90;;;;;;5088648;28;20042;-57
2023/04/26 13:38:42;;;;;;;1999.90;999.90;;;16.00;99.90;;;;;;5087785;28;20225;-58
2023/04/26 13:41:09;;;;;;;1999.90;999.90;;;16.00;99.90;;;;;;5087611;28;20044;-57
2023/04/26 13:43:34;;;;;;;1999.90;999.90;;;16.00;99.90;;;;;;5087425;28;20055;-57
2023/04/26 13:46:00;;;;;;;1999.90;999.90;;;16.00;99.90;;;;;;5087740;28;20036;-57
2023/04/26 13:48:26;;;;;;;1999.90;999.90;;;16.00;99.90;;;;;;5066447;28;20032;-57
2023/04/26 13:50:52;;;;;;;1999.90;999.90;;;16.00;99.90;;;;;;5070210;28;20072;-57
2023/04/26 13:53:21;;;;;;;1999.90;999.90;;;16.00;99.90;;;;;;5087748;28;20039;-57
2023/04/26 13:55:47;;;;;;;1999.90;999.90;;;16.00;99.90;;;;;;5092317;28;20473;-58
2023/04/26 13:58:13;;;;;;;1999.90;999.90;;;16.10;99.90;;;;;;5088885;28;20028;-57
2023/04/26 14:00:38;;;;;;;1999.90;999.90;;;16.10;99.90;;;;;;5088900;28;20031;-57
2023/04/26 14:03:04;;;;;;;1999.90;999.90;;;16.10;99.90;;;;;;5091302;28;20051;-58
2023/04/26 14:05:30;;;;;;;1999.90;999.90;;;16.10;99.90;;;;;;5090142;28;20505;-58
2023/04/26 14:07:56;;;;;;;1999.90;999.90;;;16.10;99.90;;;;;;5092547;28;20028;-58
2023/04/26 14:10:22;;;;;;;1999.90;999.90;;;16.10;99.90;;;;;;5089406;28;20044;-57
2023/04/26 14:12:47;;;;;;;1999.90;999.90;;;16.10;99.90;;;;;;5070716;28;20044;-57
2023/04/26 14:15:14;;;;;;;1999.90;999.90;;;16.10;99.90;;;;;;5092045;28;20050;-57
2023/04/26 14:17:39;;;;;;;1999.90;999.90;;;16.10;99.90;;;;;;5072852;28;20040;-57
2023/04/26 14:20:07;;;;;;;1999.90;999.90;;;16.10;99.90;;;;;;5091325;28;20376;-57
2023/04/26 14:22:35;;;;;;;1999.90;999.90;;;16.10;99.90;;;;;;5084654;28;20036;-60
2023/04/26 14:25:01;;;;;;;1999.90;999.90;;;16.10;99.90;;;;;;5090941;28;20044;-58
2023/04/26 14:27:27;;;;;;;1999.90;999.90;;;16.10;99.90;;;;;;5074562;28;20361;-58
2023/04/26 14:29:52;;;;;;;1999.90;999.90;;;16.10;99.90;;;;;;5087198;28;20456;-58
2023/04/26 14:32:18;;;;;;;1999.90;999.90;;;16.10;99.90;;;;;;5088527;28;20039;-58
2023/04/26 14:34:43;;;;;;;1999.90;999.90;;;16.00;99.90;;;;;;5089035;28;20431;-57
2023/04/26 14:37:09;;;;;;;1999.90;999.90;;;16.10;99.90;;;;;;5089020;28;20048;-58
2023/04/26 14:39:36;;;;;;;1999.90;999.90;;;16.10;99.90;;;;;;5091035;28;20054;-58
2023/04/26 14:42:02;;;;;;;1999.90;999.90;;;16.10;99.90;;;;;;5087612;28;20469;-57
2023/04/26 14:44:28;;;;;;;1999.90;999.90;;;16.10;99.90;;;;;;5088496;28;20051;-58
2023/04/26 14:46:54;;;;;;;1999.90;999.90;;;16.10;99.90;;;;;;5087920;28;20369;-58
2023/04/26 14:49:20;;;;;;;1999.90;999.90;;;16.10;99.90;;;;;;5088760;28;20039;-58
2023/04/26 14:51:45;;;;;;;1999.90;999.90;;;16.10;99.90;;;;;;5087349;28;20048;-57
2023/04/26 14:54:11;;;;;;;1999.90;999.90;;;16.10;99.90;;;;;;5087471;28;20036;-57
2023/04/26 14:56:37;;;;;;;1999.90;999.90;;;16.00;99.90;;;;;;5070378;28;20086;-58
2023/04/26 14:59:03;;;;;;;1999.90;999.90;;;16.10;99.90;;;;;;5094047;28;20507;-58
2023/04/26 15:01:29;;;;;;;1999.90;999.90;;;16.10;99.90;;;;;;5087798;28;20383;-58
2023/04/26 15:03:55;;;;;;;1999.90;999.90;;;16.00;99.90;;;;;;5085739;28;20126;-57
2023/04/26 15:06:21;;;;;;;1999.90;999.90;;;16.00;99.90;;;;;;5088602;28;20571;-58
2023/04/26 15:08:46;;;;;;;1999.90;999.90;;;16.00;99.90;;;;;;5087966;28;20043;-58
2023/04/26 15:11:12;;;;;;;1999.90;999.90;;;16.00;99.90;;;;;;5073257;28;20055;-58
2023/04/26 15:13:37;;;;;;;1999.90;999.90;;;16.00;99.90;;;;;;5090629;28;20036;-57
2023/04/26 15:16:04;;;;;;;1999.90;999.90;;;16.00;99.90;;;;;;5086036;28;20036;-58
2023/04/26 15:18:30;;;;;;;1999.90;999.90;;;16.00;99.90;;;;;;5088045;28;20085;-57
2023/04/26 15:20:57;;;;;;;1999.90;999.90;;;16.00;99.90;;;;;;5092156;28;20044;-58
2023/04/26 15:23:23;;;;;;;1999.90;999.90;;;16.00;99.90;;;;;;5089806;28;20036;-57
2023/04/26 15:25:48;;;;;;;1999.90;999.90;;;16.00;99.90;;;;;;5086680;28;20043;-57
2023/04/26 15:28:14;;;;;;;1999.90;999.90;;;16.00;99.90;;;;;;5090604;28;20040;-58
2023/04/26 15:30:40;;;;;;;1999.90;999.90;;;16.00;99.90;;;;;;5091312;28;20472;-57
2023/04/26 15:33:06;;;;;;;1999.90;999.90;;;15.90;99.90;;;;;;5089839;28;20363;-58
2023/04/26 15:35:32;;;;;;;1999.90;999.90;;;16.00;99.90;;;;;;5089080;28;20031;-58
2023/04/26 15:37:58;;;;;;;1999.90;999.90;;;16.00;99.90;;;;;;5086878;28;20151;-58
2023/04/26 15:40:23;;;;;;;1999.90;999.90;;;15.90;99.90;;;;;;5088674;28;20126;-58
2023/04/26 15:42:50;;;;;;;1999.90;999.90;;;16.00;99.90;;;;;;5088374;28;21746;-58
2023/04/26 15:45:17;;;;;;;1999.90;999.90;;;16.00;99.90;;;;;;5088540;28;20036;-58
2023/04/26 15:47:43;;;;;;;1999.90;999.90;;;15.90;99.90;;;;;;5088986;28;20081;-58
2023/04/26 15:50:08;;;;;;;1999.90;999.90;;;15.90;99.90;;;;;;5084072;28;20127;-58
2023/04/26 15:52:35;;;;;;;1999.90;999.90;;;15.90;99.90;;;;;;5091288;28;20430;-58
2023/04/26 15:55:02;;;;;;;1999.90;999.90;;;15.90;99.90;;;;;;5074150;28;20051;-58
2023/04/26 15:57:28;;;;;;;1999.90;999.90;;;15.90;99.90;;;;;;5087972;28;20656;-58
2023/04/26 15:59:55;;;;;;;1999.90;999.90;;;15.90;99.90;;;;;;5085949;28;20396;-58
2023/04/26 16:02:21;;;;;;;1999.90;999.90;;;15.90;99.90;;;;;;5087443;28;20044;-58
2023/04/26 16:04:47;;;;;;;1999.90;999.90;;;15.90;99.90;;;;;;5087150;28;20084;-58
2023/04/26 16:07:13;;;;;;;1999.90;999.90;;;15.90;99.90;;;;;;5088639;28;20492;-57
2023/04/26 16:09:39;;;;;;;1999.90;999.90;;;15.90;99.90;;;;;;5067592;28;20054;-57
2023/04/26 16:12:05;;;;;;;1999.90;999.90;;;15.90;99.90;;;;;;5090315;28;20047;-57
2023/04/26 16:14:34;;;;;;;1999.90;999.90;;;15.90;99.90;;;;;;5087736;28;20040;-58
2023/04/26 16:17:00;;;;;;;1999.90;999.90;;;15.90;99.90;;;;;;5085967;28;20039;-57
2023/04/26 16:19:26;;;;;;;1999.90;999.90;;;15.90;99.90;;;;;;5068472;28;20039;-57
2023/04/26 16:21:51;;;;;;;1999.90;999.90;;;16.10;99.90;;;;;;5086707;28;20043;-57
2023/04/26 16:24:18;;;;;;;1999.90;999.90;;;16.10;99.90;;;;;;5070193;28;20074;-58
2023/04/26 16:26:45;;;;;;;1999.90;999.90;;;16.10;99.90;;;;;;5089612;28;20499;-58
2023/04/26 16:29:11;;;;;;;1999.90;999.90;;;16.10;99.90;;;;;;5066671;28;20056;-57
2023/04/26 16:31:36;;;;;;;1999.90;999.90;;;16.10;99.90;;;;;;5089171;28;20040;-57
2023/04/26 16:34:02;;;;;;;1999.90;999.90;;;16.10;99.90;;;;;;5086398;28;20042;-57
2023/04/26 16:36:28;;;;;;;1999.90;999.90;;;16.00;99.90;;;;;;5087294;28;20047;-57
2023/04/26 16:38:55;;;;;;;1999.90;999.90;;;16.00;99.90;;;;;;5085998;28;20100;-57
2023/04/26 16:41:21;;;;;;;1999.90;999.90;;;16.00;99.90;;;;;;5086201;28;20105;-57
2023/04/26 16:43:47;;;;;;;1999.90;999.90;;;16.00;99.90;;;;;;5085405;28;20456;-58
2023/04/26 16:46:13;;;;;;;1999.90;999.90;;;15.90;99.90;;;;;;5086516;28;20067;-57
2023/04/26 16:48:39;;;;;;;1999.90;999.90;;;15.90;99.90;;;;;;5086056;28;20484;-58
2023/04/26 16:51:05;;;;;;;1999.90;999.90;;;15.90;99.90;;;;;;5089152;28;20075;-58
2023/04/26 16:53:31;;;;;;;1999.90;999.90;;;15.90;99.90;;;;;;5088861;28;20408;-58
2023/04/26 16:55:58;;;;;;;1999.90;999.90;;;15.90;99.90;;;;;;5085379;28;20036;-58
2023/04/26 16:58:24;;;;;;;1999.90;999.90;;;15.80;99.90;;;;;;5067699;28;20051;-58
2023/04/26 17:00:50;;;;;;;1999.90;999.90;;;15.80;99.90;;;;;;5084944;28;20047;-58
2023/04/26 17:03:16;;;;;;;1999.90;999.90;;;15.80;99.90;;;;;;5090338;28;20032;-57
2023/04/26 17:05:46;;;;;;;1999.90;999.90;;;15.80;99.90;;;;;;5085653;28;20526;-57
2023/04/26 17:08:12;;;;;;;1999.90;999.90;;;15.80;99.90;;;;;;5090568;28;20066;-57
2023/04/26 17:10:38;;;;;;;1999.90;999.90;;;15.80;99.90;;;;;;5087600;28;20044;-57
2023/04/26 17:13:05;;;;;;;1999.90;999.90;;;15.80;99.90;;;;;;5085493;28;20384;-57
2023/04/26 17:15:34;;;;;;;1999.90;999.90;;;15.80;99.90;;;;;;5090629;28;20043;-57
2023/04/26 17:18:01;;;;;;;1999.90;999.90;;;15.70;99.90;;;;;;5086694;28;20488;-57
2023/04/26 17:20:30;;;;;;;1999.90;999.90;;;15.70;99.90;;;;;;5086221;28;20044;-58
2023/04/26 17:22:57;;;;;;;1999.90;999.90;;;15.80;99.90;;;;;;5085087;28;20089;-58
2023/04/26 17:25:23;;;;;;;1999.90;999.90;;;15.80;99.90;;;;;;5071030;28;20052;-57
2023/04/26 17:27:50;;;;;;;1999.90;999.90;;;15.70;99.90;;;;;;5067275;28;20046;-58
2023/04/26 17:30:16;;;;;;;1999.90;999.90;;;15.80;99.90;;;;;;5086284;28;20032;-58
2023/04/26 17:32:41;;;;;;;1999.90;999.90;;;15.70;99.90;;;;;;5086340;28;20055;-57
2023/04/26 17:35:07;;;;;;;1999.90;999.90;;;15.70;99.90;;;;;;5089193;28;20032;-58
2023/04/26 17:37:33;;;;;;;1999.90;999.90;;;15.70;99.90;;;;;;5067901;28;20068;-58
2023/04/26 17:39:59;;;;;;;1999.90;999.90;;;15.70;99.90;;;;;;5085319;28;20063;-58